Terminal Aerodrome Forecast
Issued by NWS

Home | Current Version | Previous Version | Text Only | Print | Product List | Glossary Off
Versions: 1 2 3 4 5 6 7 8 9 10 11 12 13 14 15 16 17 18 19 20 21 22 23 24

000
FTUS43 KTOP 240700 AAB
TAFMHK
TAF AMD
KMHK 240745Z 2408/2506 13009KT 2SM -RA BR BKN006
     FM241500 16009KT 6SM -SHRA BKN012
     FM241900 19011KT P6SM BKN035
      TEMPO 2421/2501 4SM -TSRA OVC015CB
     FM250200 15005KT P6SM BKN020=

USA.gov is the U.S. government's official web portal to all federal, state and local government web resources and services.